Austin, TX (78703)

7:08 AM CDT on April 29, 2017 (GMT -0500)
Tarry Town | | Change Station

Elev 558 ft 30.29 °N, 97.77 °W | Updated 47 seconds ago

Haze
Haze
79.3 °F
Feels Like 84 °F
N
8.3
Wind Variable Wind from North

Today
High -- | Low -- °F
--% Chance of Precip.
Yesterday
High -- | Low -- °F
Precip. -- in
Pressure 29.56 in
Visibility 6.0 miles
Clouds Few 2400 ft
Overcast 3500 ft
Heat Index 84 °F
Dew Point 76 °F
Humidity 89%
Rainfall 0.00 in
Snow Depth Not available.
6:49 AM 8:07 PM
Waxing Crescent, 13% visible
METAR KATT 291151Z AUTO 15006G15KT 6SM HZ FEW024 OVC035 25/22 A2960 RMK AO2 SLP009 T02500217 10256 20250 55002
Pressure 29.56 in
Visibility 6.0 miles
Clouds Few 2400 ft
Overcast 3500 ft
Heat Index 84 °F
Dew Point 76 °F
Humidity 89%
Rainfall 0.00 in
Snow Depth Not available.
6:49 AM 8:07 PM
Waxing Crescent, 13% visible
METAR KATT 291151Z AUTO 15006G15KT 6SM HZ FEW024 OVC035 25/22 A2960 RMK AO2 SLP009 T02500217 10256 20250 55002

Get Severe Weather Alerts

Thanks for signing up!

Be on the lookout for a verification email in your inbox.

You'll start receiving the daily forecast at 8 AM.

×

10-Day Weather Forecast

Almanac

Astronomy

Apr. 29, 2017 Rise Set
Actual Time
Civil Twilight
Nautical Twilight
Astronomical Twilight
Moon
Length of Visible Light
Length of Day
Tomorrow will be .
, % of the Moon is Illuminated

Today's Extremes

State Highs State Lows

Community

WunderPhotos

WunderBlog® & News

Nearby

Air Quality

  Air Quality AQ Index Pollutant
Not available.

Snow Depth

Station Depth Elevation

Earthquake Activity

City Distance Mag. Time & Date
Minimum magnitude displayed is 2.5.

Coastal Water Temperatures

Place Temperature

Stations

Nearby Weather Stations

Station Location Temp. Windchill Dew Point Humidity Wind Precip. Elev Updated Type
                   

Watches & Warnings

There are currently no watches in effect.